Saint Bernard Grove, Louisiana
Current Conditions -  °F | °C
As of 5:53 PM on Monday 22 Dec 2014 (Local Time) from KNEW Reporting Station
Broken Clouds Broken Clouds  
Wind Chill: 72°   Ceiling: 1100
Heat Index: 72°   Visibility: 8mi
Dew Point: 66°   Wind: 18mph
Humidity: 81%   Direction: 200°SSW
Pressure: 29.72"   Gusts: NA
Location:  29.9486°N, 89.8975°W
Report Text: KNEW 222353Z AUTO 20016KT 8SM BKN011 BKN029 22/19 A2972 RMK AO2 PK WND 20026/2311 SLP058 T02220189 10244 20217 53003 TSNO
Loading
Personal Weather Stations






























Interactive Weather Map New forecast layout! Learn more

10-Day Weather Forecast

Advertisements
Track Severe Weather on mobile